Campo Do Tenente, Brazil
Current Conditions -  °F | °C
As of 11:00 AM on Thursday 23 Oct 2014 (Local Time) from SBCT Reporting Station
Broken Clouds Broken Clouds  
Wind Chill: 64°   Ceiling: 2300
Heat Index: 64°   Visibility: 6mi
Dew Point: 52°   Wind: 8mph
Humidity: 64%   Direction: 80°E
Pressure: 30.24"   Gusts: NA
Location:  25.98°S, 49.69°W
Report Text: SBCT 231300Z 08007KT 9999 BKN023 18/11 Q1024
Loading
Personal Weather Stations






























Interactive Weather Map
Tropical Storm Tracking
New forecast layout! Learn more

10-Day Weather Forecast

Advertisements
Track Severe Weather on mobile